Weather History for Sparta, WI

Change the Weather History Date:

Monday, November 11, 2013

  Actual Average Record
Temperature  
Mean Temperature 30 °F -  
Max Temperature 41 °F 43 °F 71 °F (1964)
Min Temperature 18 °F 27 °F 6 °F (1950)
Degree Days  
Heating Degree Days 36    
Moisture  
Dew Point 20 °F    
Average Humidity 67    
Maximum Humidity 99    
Minimum Humidity 50    
Precipitation  
Precipitation 0.05 in - - ()
Sea Level Pressure  
Sea Level Pressure 30.33 in    
Wind  
Wind Speed 7 mph (NW)    
Max Wind Speed 17 mph    
Max Gust Speed 22 mph    
Visibility 9 miles    
Events Rain , Snow    
Averages and records for this station are not official NWS values.
T = Trace of Precipitation, MM = Missing Value Source: NWS Daily Summary

Daily Weather History Graph

Daily Weather History Graph

Search for Another Location

Airport:

Trip Planner

Search our weather history database for the weather conditions in past years. The results will help you decide how hot, cold, wet, or windy it might be!

Date:

Astronomy

Nov. 11, 2013 Rise Set
Actual Time 6:52 AM CST 4:40 PM CST
Civil Twilight 6:22 AM CST 5:11 PM CST
Nautical Twilight 5:47 AM CST 5:46 PM CST
Astronomical Twilight 5:13 AM CST 6:19 PM CST
Moon 1:32 PM CST (11/11) 12:25 AM CST (11/11)
Length of Visible Light 10h 49m
Length of Day
9h 47m
Waxing Gibbous, 66% of the Moon is Illuminated
Nov 11
Waxing Gibbous
Nov 17
Full
Nov 25
Last Quarter
Dec 2
New
Dec 9
First Quarter

Hourly Weather History & Observations

Time (CST) Temp. Windchill Dew Point Humidity Pressure Visibility Wind Dir Wind Speed Gust Speed Precip Events Conditions
12:15 AM 41.4 °F 38.4 °F 28.9 °F 61% 30.09 in 10.0 mi WSW 4.6 mph - N/A   Overcast
12:35 AM 41.2 °F - 29.1 °F 62% 30.09 in 10.0 mi Calm Calm - N/A   Overcast
12:55 AM 41.2 °F - 29.1 °F 62% 30.07 in 10.0 mi Calm Calm - N/A   Overcast
1:15 AM 41.2 °F 39.2 °F 29.1 °F 62% 30.07 in 10.0 mi SW 3.5 mph - N/A   Overcast
1:35 AM 41.4 °F - 29.1 °F 62% 30.06 in 10.0 mi Calm Calm - N/A   Overcast
1:55 AM 41.0 °F - 29.5 °F 64% 30.07 in 10.0 mi Calm Calm - N/A   Overcast
2:15 AM 41.2 °F 38.2 °F 29.7 °F 64% 30.08 in 10.0 mi WNW 4.6 mph - N/A   Overcast
2:35 AM 41.5 °F 37.8 °F 29.7 °F 63% 30.07 in 10.0 mi West 5.8 mph - N/A   Overcast
2:55 AM 41.2 °F 39.2 °F 29.8 °F 64% 30.07 in 10.0 mi West 3.5 mph - N/A   Overcast
3:15 AM 41.2 °F 36.6 °F 29.5 °F 63% 30.07 in 10.0 mi West 6.9 mph - N/A   Overcast
3:35 AM 41.5 °F 35.9 °F 29.3 °F 62% 30.07 in 10.0 mi NW 9.2 mph 17.3 mph N/A   Overcast
3:55 AM 41.0 °F 33.9 °F 29.8 °F 64% 30.08 in 10.0 mi WNW 12.7 mph - N/A   Overcast
4:15 AM 39.9 °F 32.5 °F 30.9 °F 70% - 10.0 mi NNW 12.7 mph - N/A Rain Rain
4:35 AM 38.3 °F 30.5 °F 32.0 °F 78% 30.10 in 10.0 mi NW 12.7 mph - N/A   Light Drizzle
4:55 AM 36.7 °F 30.5 °F 32.9 °F 86% 30.12 in 10.0 mi NW 8.1 mph - N/A Rain Rain
5:15 AM 35.8 °F 30.1 °F 32.7 °F 89% 30.12 in 7.0 mi NW 6.9 mph - N/A Rain Light Rain
5:35 AM 35.2 °F 31.2 °F 33.6 °F 94% 30.13 in 5.0 mi NW 4.6 mph - 0.01 in Rain Rain
5:55 AM 34.5 °F 28.6 °F 33.6 °F 97% 30.15 in 5.0 mi NW 6.9 mph - 0.02 in Rain Light Rain
6:15 AM 33.8 °F 28.6 °F 33.3 °F 98% 30.15 in 5.0 mi WNW 5.8 mph - 0.01 in Rain Light Rain
6:35 AM 33.8 °F 29.6 °F 32.9 °F 96% 30.16 in 5.0 mi NNW 4.6 mph - 0.01 in Snow Light Snow
6:55 AM 33.3 °F 26.4 °F 32.9 °F 99% 30.17 in 3.0 mi NW 8.1 mph - 0.02 in Snow Light Snow
7:15 AM 32.9 °F 28.5 °F 32.5 °F 99% 30.18 in 2.5 mi NNW 4.6 mph - 0.01 in Snow Light Snow
7:35 AM 32.5 °F 25.5 °F 32.2 °F 99% 30.19 in 3.0 mi NW 8.1 mph - 0.01 in Snow Light Snow
7:55 AM 32.0 °F 23.6 °F 30.9 °F 96% 30.20 in 2.5 mi NW 10.4 mph - 0.01 in Snow Light Snow
8:15 AM 31.1 °F 21.9 °F 30.0 °F 96% 30.23 in 4.0 mi North 11.5 mph 19.6 mph N/A Snow Light Snow
8:35 AM 30.2 °F 22.6 °F 28.0 °F 92% 30.25 in 10.0 mi NNW 8.1 mph - N/A   Overcast
8:55 AM 30.2 °F 21.9 °F 27.5 °F 90% 30.25 in 10.0 mi NNW 9.2 mph - N/A   Overcast
9:15 AM 29.5 °F 18.8 °F 25.0 °F 83% 30.26 in 10.0 mi NNW 13.8 mph 18.4 mph N/A   Overcast
9:35 AM 28.4 °F 17.5 °F 21.6 °F 76% 30.27 in 10.0 mi NNW 13.8 mph 19.6 mph N/A   Overcast
9:55 AM 27.5 °F 18.0 °F 20.7 °F 75% 30.29 in 10.0 mi NNW 10.4 mph 19.6 mph N/A   Overcast
10:15 AM 27.3 °F 18.4 °F 20.5 °F 75% 30.30 in 10.0 mi NNW 9.2 mph 18.4 mph N/A   Overcast
10:35 AM 27.5 °F 17.4 °F 20.8 °F 76% 30.30 in 10.0 mi North 11.5 mph - N/A   Overcast
10:55 AM 27.3 °F 17.1 °F 20.3 °F 75% 30.31 in 10.0 mi North 11.5 mph 17.3 mph N/A   Overcast
11:15 AM 27.5 °F 18.0 °F 20.3 °F 74% 30.31 in 10.0 mi NNW 10.4 mph - N/A   Mostly Cloudy
11:35 AM 27.5 °F 20.2 °F 18.5 °F 69% 30.32 in 10.0 mi North 6.9 mph 17.3 mph N/A   Overcast
11:55 AM 27.3 °F 18.4 °F 17.1 °F 65% 30.33 in 10.0 mi North 9.2 mph - N/A   Mostly Cloudy
12:15 PM 27.3 °F 16.1 °F 15.8 °F 62% 30.33 in 10.0 mi North 13.8 mph - N/A   Scattered Clouds
12:35 PM 27.3 °F 16.6 °F 15.3 °F 61% 30.35 in 10.0 mi North 12.7 mph 19.6 mph N/A   Scattered Clouds
12:55 PM 27.5 °F 16.8 °F 15.3 °F 60% 30.35 in 10.0 mi NNW 12.7 mph 19.6 mph N/A   Scattered Clouds
1:15 PM 27.7 °F 17.1 °F 14.5 °F 58% 30.35 in 10.0 mi North 12.7 mph 19.6 mph N/A   Scattered Clouds
1:35 PM 28.0 °F 18.6 °F 16.0 °F 61% 30.36 in 10.0 mi North 10.4 mph 18.4 mph N/A   Scattered Clouds
1:55 PM 28.9 °F 16.9 °F 14.2 °F 54% 30.36 in 10.0 mi NNW 17.3 mph 20.7 mph N/A   Scattered Clouds
2:15 PM 28.2 °F 17.7 °F 12.2 °F 51% 30.37 in 10.0 mi NNW 12.7 mph 21.9 mph N/A   Clear
2:35 PM 28.2 °F 17.7 °F 11.5 °F 50% 30.38 in 10.0 mi NNW 12.7 mph 17.3 mph N/A   Clear
2:55 PM 28.0 °F 18.1 °F 11.8 °F 51% 30.39 in 10.0 mi NNW 11.5 mph 18.4 mph N/A   Clear
3:15 PM 26.6 °F 16.2 °F 12.6 °F 55% 30.40 in 10.0 mi NW 11.5 mph 17.3 mph N/A   Clear
3:35 PM 27.3 °F 17.7 °F 12.2 °F 53% 30.41 in 10.0 mi NNW 10.4 mph - N/A   Clear
3:55 PM 27.1 °F 17.5 °F 12.7 °F 55% 30.42 in 10.0 mi WNW 10.4 mph - N/A   Clear
4:15 PM 26.4 °F 16.6 °F 13.3 °F 58% 30.42 in 10.0 mi NW 10.4 mph - N/A   Clear
4:35 PM 26.2 °F 17.8 °F 11.3 °F 53% 30.43 in 10.0 mi NW 8.1 mph - N/A   Clear
4:55 PM 25.7 °F 18.0 °F 11.3 °F 55% 30.44 in 10.0 mi NW 6.9 mph - N/A   Clear
5:15 PM 25.2 °F 17.3 °F 11.1 °F 55% 30.45 in 10.0 mi NW 6.9 mph - N/A   Clear
5:35 PM 24.8 °F 15.3 °F 11.1 °F 56% 30.47 in 10.0 mi NW 9.2 mph - N/A   Clear
5:55 PM 24.6 °F 15.8 °F 10.4 °F 55% 30.47 in 10.0 mi NW 8.1 mph - N/A   Clear
6:15 PM 24.6 °F 15.8 °F 10.0 °F 54% 30.48 in 10.0 mi NW 8.1 mph - N/A   Clear
6:35 PM 23.9 °F 15.0 °F 9.5 °F 54% 30.50 in 10.0 mi NW 8.1 mph - N/A   Clear
6:55 PM 23.9 °F 16.8 °F 9.1 °F 53% 30.50 in 10.0 mi NW 5.8 mph - N/A   Clear
7:15 PM 23.7 °F 14.7 °F 9.1 °F 54% 30.51 in 10.0 mi NW 8.1 mph - N/A   Clear
7:35 PM 23.5 °F 14.5 °F 9.0 °F 54% 30.52 in 10.0 mi NW 8.1 mph - N/A   Clear
7:55 PM 23.2 °F 14.1 °F 8.8 °F 54% 30.53 in 10.0 mi NW 8.1 mph - N/A   Clear
8:15 PM 23.0 °F 13.1 °F 9.0 °F 55% 30.54 in 10.0 mi NW 9.2 mph - N/A   Clear
8:35 PM 22.6 °F 14.3 °F 8.8 °F 55% 30.55 in 10.0 mi NW 6.9 mph - N/A   Clear
8:55 PM 22.1 °F 12.8 °F 9.0 °F 57% 30.56 in 10.0 mi NW 8.1 mph - N/A   Clear
9:15 PM 22.1 °F 13.7 °F 9.1 °F 58% 30.57 in 10.0 mi NW 6.9 mph - N/A   Clear
9:35 PM 21.9 °F 12.5 °F 9.3 °F 58% 30.58 in 10.0 mi NW 8.1 mph - N/A   Clear
9:55 PM 21.7 °F 15.5 °F 9.1 °F 58% 30.59 in 10.0 mi NW 4.6 mph - N/A   Clear
10:15 PM 21.2 °F 14.9 °F 9.1 °F 60% 30.60 in 10.0 mi NNW 4.6 mph - N/A   Clear
10:35 PM 21.0 °F 16.2 °F 9.3 °F 61% 30.61 in 10.0 mi NW 3.5 mph - N/A   Clear
10:55 PM 20.3 °F 15.4 °F 9.3 °F 63% 30.62 in 10.0 mi NW 3.5 mph - N/A   Clear
11:15 PM 18.9 °F - 9.1 °F 66% 30.62 in 10.0 mi Calm Calm - N/A   Clear
11:35 PM 19.4 °F - 8.6 °F 63% 30.63 in 10.0 mi Calm Calm - N/A   Clear
11:55 PM 18.7 °F - 8.6 °F 65% 30.64 in 10.0 mi Calm Calm - N/A   Clear